createdAt,value
2023-03-11T00:01:13.484Z,19.80
2023-03-11T00:03:42.498Z,19.90
2023-03-11T00:06:11.387Z,19.80
2023-03-11T00:08:41.391Z,19.80
2023-03-11T00:11:11.624Z,19.80
2023-03-11T00:13:41.337Z,19.80
2023-03-11T00:16:11.224Z,19.70
2023-03-11T00:18:40.453Z,19.70
2023-03-11T00:21:17.427Z,19.60
2023-03-11T00:23:46.589Z,19.60
2023-03-11T00:26:16.897Z,19.60
2023-03-11T00:28:46.086Z,19.60
2023-03-11T00:31:15.172Z,19.50
2023-03-11T00:33:44.092Z,19.50
2023-03-11T00:36:24.391Z,19.50
2023-03-11T00:38:53.690Z,19.50
2023-03-11T00:41:23.909Z,19.50
2023-03-11T00:43:53.216Z,19.50
2023-03-11T00:46:22.089Z,19.50
2023-03-11T00:48:52.365Z,19.50
2023-03-11T00:51:21.674Z,19.40
2023-03-11T00:53:50.510Z,19.40
2023-03-11T00:56:19.539Z,19.40
2023-03-11T00:58:50.352Z,19.30
2023-03-11T01:01:21.121Z,19.40
2023-03-11T01:03:50.360Z,19.40
2023-03-11T01:06:19.689Z,19.30
2023-03-11T01:08:48.615Z,19.30
2023-03-11T01:11:18.637Z,19.30
2023-03-11T01:13:50.097Z,19.20
2023-03-11T01:16:19.140Z,19.30
2023-03-11T01:18:49.024Z,19.30
2023-03-11T01:21:18.033Z,19.30
2023-03-11T01:23:46.911Z,19.20
2023-03-11T01:26:16.219Z,19.20
2023-03-11T01:28:45.149Z,19.30
2023-03-11T01:31:15.653Z,19.20
2023-03-11T01:33:44.559Z,19.20
2023-03-11T01:36:14.559Z,19.20
2023-03-11T01:38:43.378Z,19.10
2023-03-11T01:41:13.959Z,19.20
2023-03-11T01:43:51.404Z,19.20
2023-03-11T01:46:26.881Z,19.20
2023-03-11T01:48:58.048Z,19.20
2023-03-11T01:51:33.573Z,19.10
2023-03-11T01:54:05.775Z,19.10
2023-03-11T01:56:35.782Z,19.00
2023-03-11T01:59:04.713Z,19.10
2023-03-11T02:01:37.670Z,19.00
2023-03-11T02:04:07.039Z,19.00
2023-03-11T02:06:36.357Z,18.90
2023-03-11T02:26:53.882Z,18.90
2023-03-11T02:29:24.030Z,18.90
2023-03-11T02:31:54.141Z,18.90
2023-03-11T02:34:27.776Z,18.90
2023-03-11T02:36:57.068Z,18.80
2023-03-11T02:39:37.385Z,18.80
2023-03-11T02:42:13.463Z,18.80
2023-03-11T02:44:45.525Z,18.80
2023-03-11T02:47:14.750Z,18.70
2023-03-11T02:49:44.641Z,18.70
2023-03-11T02:52:13.751Z,18.70
2023-03-11T02:54:42.656Z,18.80
2023-03-11T02:57:13.013Z,18.70
2023-03-11T02:59:42.976Z,18.70
2023-03-11T03:02:12.082Z,18.80
2023-03-11T03:04:41.992Z,18.70
2023-03-11T03:07:11.197Z,18.70
2023-03-11T03:09:40.542Z,18.70
2023-03-11T03:12:09.738Z,18.60
2023-03-11T03:14:40.372Z,18.60
2023-03-11T03:17:09.520Z,18.60
2023-03-11T03:19:38.456Z,18.60
2023-03-11T03:22:08.336Z,18.60
2023-03-11T03:24:37.302Z,18.60
2023-03-11T03:27:06.587Z,18.60
2023-03-11T03:29:35.649Z,18.60
2023-03-11T03:32:06.606Z,18.60
2023-03-11T03:34:36.449Z,18.60
2023-03-11T03:37:05.497Z,18.50
2023-03-11T03:39:34.589Z,18.60
2023-03-11T03:42:04.196Z,18.60
2023-03-11T03:44:36.434Z,18.60
2023-03-11T03:47:07.687Z,18.50
2023-03-11T03:49:36.738Z,18.50
2023-03-11T03:52:07.138Z,18.50
2023-03-11T03:54:36.124Z,18.50
2023-03-11T03:57:05.934Z,18.50
2023-03-11T03:59:41.306Z,18.50
2023-03-11T04:02:11.641Z,18.40
2023-03-11T04:04:40.627Z,18.40
2023-03-11T04:07:11.690Z,18.40
2023-03-11T04:09:41.599Z,18.40
2023-03-11T04:12:14.808Z,18.30
2023-03-11T04:14:44.663Z,18.30
2023-03-11T04:17:17.891Z,18.20
2023-03-11T04:19:47.253Z,18.20
2023-03-11T04:22:16.300Z,18.20
2023-03-11T04:24:45.548Z,18.20
2023-03-11T04:27:14.753Z,18.20
2023-03-11T04:29:43.694Z,18.20
2023-03-11T04:32:14.724Z,18.20
2023-03-11T04:34:45.094Z,18.20
2023-03-11T04:37:16.056Z,18.20
2023-03-11T04:39:45.532Z,18.20
2023-03-11T04:42:15.342Z,18.10
2023-03-11T04:44:45.619Z,18.20
2023-03-11T04:47:16.354Z,18.20
2023-03-11T04:49:45.852Z,18.20
2023-03-11T04:52:15.168Z,18.20
2023-03-11T04:54:44.422Z,18.10
2023-03-11T04:57:13.398Z,18.10
2023-03-11T04:59:45.097Z,18.10
2023-03-11T05:02:17.221Z,18.20
2023-03-11T05:04:53.464Z,18.10
2023-03-11T05:07:23.001Z,18.20
2023-03-11T05:09:52.529Z,18.10
2023-03-11T05:12:21.406Z,18.20
2023-03-11T05:14:53.963Z,18.10
2023-03-11T05:17:25.092Z,18.10
2023-03-11T05:19:55.794Z,18.10
2023-03-11T05:22:29.327Z,18.20
2023-03-11T05:24:58.234Z,18.20
2023-03-11T05:27:27.362Z,18.20
2023-03-11T05:29:58.427Z,18.20
2023-03-11T05:32:31.120Z,18.20
2023-03-11T05:35:00.380Z,18.20
2023-03-11T05:37:29.586Z,18.20
2023-03-11T05:39:59.036Z,18.20
2023-03-11T05:42:27.888Z,18.20
2023-03-11T05:44:58.507Z,18.20
2023-03-11T05:47:29.609Z,18.20
2023-03-11T05:49:59.540Z,18.20
2023-03-11T05:52:30.714Z,18.20
2023-03-11T05:54:59.672Z,18.20
2023-03-11T05:57:31.041Z,18.20
2023-03-11T06:00:00.232Z,18.10
2023-03-11T06:04:59.771Z,18.20
2023-03-11T06:07:28.856Z,18.20
2023-03-11T06:09:57.796Z,18.20
2023-03-11T06:12:26.722Z,18.10
2023-03-11T06:15:15.468Z,18.10
2023-03-11T06:17:47.221Z,18.10
2023-03-11T06:20:16.651Z,18.20
2023-03-11T06:22:45.799Z,18.20
2023-03-11T06:25:15.148Z,18.20
2023-03-11T06:27:50.859Z,18.10
2023-03-11T06:30:20.704Z,18.20
2023-03-11T06:33:11.460Z,18.20
2023-03-11T06:35:40.260Z,18.20
2023-03-11T06:38:09.299Z,18.10
2023-03-11T06:40:39.161Z,18.20
2023-03-11T06:43:08.304Z,18.20
2023-03-11T07:13:12.553Z,18.20
2023-03-11T07:15:41.397Z,18.20
2023-03-11T07:18:10.455Z,18.20
2023-03-11T07:20:41.502Z,18.10
2023-03-11T07:33:06.999Z,18.10
2023-03-11T07:35:37.303Z,18.20
2023-03-11T07:48:05.301Z,18.20
2023-03-11T08:10:37.505Z,18.20
2023-03-11T08:18:05.410Z,18.20
2023-03-11T08:20:34.639Z,18.20
2023-03-11T08:23:03.509Z,18.20
2023-03-11T08:25:32.521Z,18.20
2023-03-11T10:09:02.377Z,18.20
2023-03-11T13:07:42.010Z,20.40
2023-03-11T13:18:02.305Z,23.90
2023-03-11T13:21:00.768Z,24.10
2023-03-11T13:31:45.583Z,23.90
2023-03-11T13:34:18.996Z,24.00
2023-03-11T13:37:12.339Z,24.00
2023-03-11T13:39:56.172Z,24.00
2023-03-11T13:42:32.562Z,24.10
